Colorado Springs, CO (80951)

6:50 AM MDT on October 23, 2014 (GMT -0600)
Carefree Circle S & Windward Circle Village 7 | Change Station
CLOSE
Current Station
Personal Weather Station
Location: Colorado Springs, CO
Elevation: 6509 ft
Nearby Weather Stations

Elev 6509 ft 38.88 °N, 104.74 °W | Updated 7 seconds ago

Clear
Clear
38.5 °F
Feels Like 38 °F
N
0.0
Wind Variable Wind from SSW
Gusts 0.0 mph

Today
High -- | Low -- °F
--% Chance of Precip.
Yesterday
High -- | Low -- °F
Precip. -- in
7:16 AM 6:09 PM
Waning Crescent, 0% visible
Pressure 30.10 in
Visibility 10.0 miles
Clouds Few 25000 ft
Windchill 38 °F
Dew Point 34 °F
Humidity 84%
Rainfall 0.00 in
Snow Depth 1 in
UV 0.0 out of 12
Pollen 2.50 out of 12
Air Quality Not available.
Flu Activity Sporadic
METAR KCOS 231154Z 02009KT 10SM FEW250 06/02 A3021 RMK AO2 SLP193 T00560022 10089 20050 53001

More Conditions Fewer Conditions

Pressure 30.10 in
Visibility 10.0 miles
Clouds Few 25000 ft
Windchill 38 °F
Dew Point 34 °F
Humidity 84%
Rainfall 0.00 in
Snow Depth 1 in
UV 0.0 out of 12
Pollen 2.50 out of 12
Air Quality Not available.
Flu Activity Sporadic
METAR KCOS 231154Z 02009KT 10SM FEW250 06/02 A3021 RMK AO2 SLP193 T00560022 10089 20050 53001

More Conditions Fewer Conditions

10-Day Weather Forecast

Almanac

Astronomy

Oct. 23, 2014 Rise Set
Actual Time 7:16 AM MDT 6:09 PM MDT
Civil Twilight 6:49 AM MDT 6:36 PM MDT
Nautical Twilight 6:18 AM MDT 7:07 PM MDT
Astronomical Twilight 5:47 AM MDT 7:38 PM MDT
Moon 6:58 AM MDT 6:12 PM MDT
Length of Visible Light 11h 47m
Length of Day
10h 52m
Tomorrow will be 2m 21s shorter.
Waning Crescent, 0% of the Moon is Illuminated
Today
Waning Crescent
Oct 23
New
Oct 30
First Quarter
Nov 6
Full
Nov 14
Last Quarter

Today's Extremes

State Highs State Lows

Community

WunderPhotos

Upload Photos

1,764,214 photos uploaded!

Nearby

Air Quality

  Air Quality AQ Index Pollutant
Yesterday Good
OZONE
Yesterday Good
PM2.5
Thursday Good
PM2.5
Thursday Good
OZONE

Snow Depth

Station Depth Elevation
Glen Cove 1 in 11460 ft
Echo Lake 0 in 10600 ft
Rough And Tumble 0 in 10360 ft
South Colony 0 in 10800 ft
Michigan Creek 0 in 10600 ft

Earthquake Activity

City Distance Mag. Time & Date
Trinidad, Colorado 123 miles 2.7 10:33 PM MDT
2014-10-20
Minimum magnitude displayed is 2.5.

Coastal Water Temperatures

Place Temperature
No Stations Reporting

Nearby Weather Stations